createdAt,value
2018-11-28T00:03:45.097Z,9.53
2018-11-28T00:08:50.710Z,7.97
2018-11-28T00:13:55.280Z,7.97
2018-11-28T00:19:00.070Z,8.53
2018-11-28T00:24:05.124Z,10.17
2018-11-28T00:29:13.319Z,9.67
2018-11-28T00:34:18.513Z,8.57
2018-11-28T00:39:23.350Z,8.23
2018-11-28T00:44:27.951Z,8.90
2018-11-28T00:49:32.678Z,8.00
2018-11-28T00:54:37.203Z,8.53
2018-11-28T00:59:45.441Z,8.93
2018-11-28T01:04:50.238Z,11.77
2018-11-28T01:09:54.940Z,10.93
2018-11-28T01:14:59.645Z,9.83
2018-11-28T01:20:05.247Z,10.07
2018-11-28T01:25:10.867Z,9.47
2018-11-28T01:30:24.130Z,8.60
2018-11-28T01:35:28.535Z,10.60
2018-11-28T01:40:33.345Z,9.57
2018-11-28T01:45:38.458Z,8.73
2018-11-28T01:50:43.160Z,8.70
2018-11-28T01:55:47.706Z,8.17
2018-11-28T02:00:52.273Z,10.90
2018-11-28T02:05:57.041Z,8.87
2018-11-28T02:11:02.164Z,9.63
2018-11-28T02:16:07.145Z,7.93
2018-11-28T02:21:18.005Z,9.80
2018-11-28T02:26:22.788Z,8.70
2018-11-28T02:31:28.040Z,11.13
2018-11-28T02:36:32.625Z,10.13
2018-11-28T02:41:37.243Z,12.17
2018-11-28T02:46:42.521Z,13.47
2018-11-28T02:51:47.133Z,10.07
2018-11-28T02:56:52.132Z,11.40
2018-11-28T03:01:56.778Z,10.30
2018-11-28T03:07:02.190Z,11.67
2018-11-28T03:12:06.858Z,13.40
2018-11-28T03:17:26.153Z,10.80
2018-11-28T03:22:30.679Z,13.13
2018-11-28T03:27:35.402Z,9.47
2018-11-28T03:32:40.275Z,11.80
2018-11-28T03:37:45.088Z,11.20
2018-11-28T03:42:50.710Z,11.83
2018-11-28T03:47:55.476Z,11.47
2018-11-28T03:53:00.797Z,10.67
2018-11-28T03:58:05.554Z,14.63
2018-11-28T04:03:10.108Z,15.43
2018-11-28T04:08:14.984Z,13.47
2018-11-28T04:13:19.600Z,11.80
2018-11-28T04:18:24.178Z,11.47
2018-11-28T04:23:29.107Z,14.27
2018-11-28T04:28:33.732Z,13.50
2018-11-28T04:33:38.504Z,13.10
2018-11-28T04:38:43.196Z,12.10
2018-11-28T04:43:47.804Z,16.40
2018-11-28T04:48:53.356Z,13.20
2018-11-28T04:53:58.663Z,12.63
2018-11-28T04:59:03.458Z,11.27
2018-11-28T05:04:08.922Z,13.13
2018-11-28T05:09:13.918Z,16.70
2018-11-28T05:14:18.554Z,12.87
2018-11-28T05:19:23.060Z,15.33
2018-11-28T05:24:27.954Z,11.23
2018-11-28T05:29:32.780Z,12.47
2018-11-28T05:34:37.812Z,14.43
2018-11-28T05:39:42.565Z,13.77
2018-11-28T05:44:46.985Z,12.60
2018-11-28T05:49:51.714Z,10.83
2018-11-28T05:54:56.511Z,11.40
2018-11-28T06:00:01.871Z,13.00
2018-11-28T06:05:09.113Z,10.87
2018-11-28T06:10:14.646Z,9.73
2018-11-28T06:15:19.477Z,8.63
2018-11-28T06:20:24.603Z,12.40
2018-11-28T06:25:29.087Z,9.13
2018-11-28T06:30:34.365Z,12.53
2018-11-28T06:35:42.123Z,9.07
2018-11-28T06:40:47.103Z,12.47
2018-11-28T06:45:52.911Z,15.37
2018-11-28T06:50:57.979Z,15.40
2018-11-28T06:56:03.610Z,16.50
2018-11-28T07:01:09.031Z,12.63
2018-11-28T07:06:14.299Z,14.63
2018-11-28T07:11:19.309Z,14.90
2018-11-28T07:16:27.118Z,19.90
2018-11-28T07:21:33.086Z,13.27
2018-11-28T07:26:38.006Z,11.87
2018-11-28T07:31:42.567Z,18.40
2018-11-28T07:42:16.794Z,11.33
2018-11-28T07:47:22.020Z,10.93
2018-11-28T07:52:27.181Z,9.43
2018-11-28T07:57:31.903Z,10.27
2018-11-28T08:02:36.661Z,8.63
2018-11-28T08:07:41.293Z,12.10
2018-11-28T08:12:45.992Z,10.83
2018-11-28T08:17:50.669Z,10.30
2018-11-28T08:22:55.860Z,12.23
2018-11-28T08:28:00.483Z,9.67
2018-11-28T08:33:05.091Z,9.13
2018-11-28T08:38:10.474Z,8.87
2018-11-28T08:43:14.884Z,13.00
2018-11-28T08:48:20.302Z,10.67
2018-11-28T08:53:25.168Z,8.73
2018-11-28T08:58:30.143Z,9.10
2018-11-28T09:03:34.596Z,8.37
2018-11-28T09:08:39.281Z,8.07
2018-11-28T09:13:45.046Z,9.97
2018-11-28T09:18:49.722Z,9.10
2018-11-28T09:23:54.091Z,9.97
2018-11-28T09:28:59.072Z,9.50
2018-11-28T09:34:03.624Z,7.77
2018-11-28T09:39:08.277Z,7.97
2018-11-28T09:44:13.082Z,8.13
2018-11-28T09:49:17.775Z,7.87
2018-11-28T09:54:22.311Z,6.70
2018-11-28T09:59:26.722Z,6.37
2018-11-28T10:04:31.676Z,7.03
2018-11-28T10:09:36.283Z,10.17
2018-11-28T10:14:40.838Z,8.10
2018-11-28T10:19:46.173Z,6.20
2018-11-28T10:24:50.677Z,6.63
2018-11-28T10:29:56.581Z,6.40
2018-11-28T10:35:02.534Z,6.77
2018-11-28T10:40:14.686Z,8.23
2018-11-28T10:45:20.391Z,13.73
2018-11-28T10:50:25.703Z,6.03
2018-11-28T10:55:30.208Z,10.63
2018-11-28T11:00:40.468Z,9.97
2018-11-28T11:05:52.265Z,7.67
2018-11-28T11:11:02.577Z,5.97
2018-11-28T11:16:12.194Z,9.33
2018-11-28T11:21:17.363Z,8.03
2018-11-28T11:26:23.197Z,8.73
2018-11-28T11:31:28.374Z,8.97
2018-11-28T11:36:33.803Z,11.13
2018-11-28T11:41:38.406Z,9.53
2018-11-28T11:46:43.028Z,5.77
2018-11-28T11:51:47.988Z,12.07
2018-11-28T11:56:52.583Z,8.27
2018-11-28T12:01:57.055Z,8.67
2018-11-28T12:07:01.821Z,7.87
2018-11-28T12:12:07.223Z,7.37
2018-11-28T12:17:11.928Z,8.07
2018-11-28T12:22:16.624Z,4.53
2018-11-28T12:27:21.274Z,7.67
2018-11-28T12:32:26.300Z,7.27
2018-11-28T12:37:31.067Z,7.80
2018-11-28T12:42:35.735Z,8.40
2018-11-28T12:47:40.417Z,6.37
2018-11-28T12:52:46.067Z,9.00
2018-11-28T12:57:50.996Z,8.10
2018-11-28T13:02:55.829Z,8.63
2018-11-28T13:08:00.441Z,9.63
2018-11-28T13:13:05.904Z,8.83
2018-11-28T13:18:18.207Z,10.00
2018-11-28T13:23:22.618Z,12.70
2018-11-28T13:28:32.525Z,7.73
2018-11-28T13:33:37.233Z,8.13
2018-11-28T13:38:51.220Z,7.10
2018-11-28T13:43:56.027Z,7.87
2018-11-28T13:49:00.770Z,7.27
2018-11-28T13:54:21.043Z,7.20
2018-11-28T13:59:13.251Z,8.03
2018-11-28T14:04:18.300Z,8.30
2018-11-28T14:09:23.161Z,7.17
2018-11-28T14:14:27.719Z,9.30
2018-11-28T14:19:32.378Z,9.10
2018-11-28T14:24:36.969Z,9.13
2018-11-28T14:29:41.709Z,10.70
2018-11-28T14:34:47.902Z,8.93
2018-11-28T14:39:52.591Z,7.50
2018-11-28T14:44:57.088Z,7.37
2018-11-28T14:50:01.548Z,9.93
2018-11-28T14:55:09.952Z,11.37
2018-11-28T15:00:20.288Z,9.90
2018-11-28T15:05:49.529Z,10.43
2018-11-28T15:11:11.050Z,13.67
2018-11-28T15:16:15.668Z,14.20
2018-11-28T15:21:20.119Z,11.80
2018-11-28T15:26:24.596Z,12.53
2018-11-28T15:31:29.574Z,11.80
2018-11-28T15:36:35.057Z,10.33
2018-11-28T15:41:40.318Z,8.10
2018-11-28T15:46:45.293Z,8.03
2018-11-28T15:51:49.884Z,11.40
2018-11-28T15:56:57.458Z,10.70
2018-11-28T16:02:02.149Z,9.40
2018-11-28T16:07:08.029Z,13.77
2018-11-28T16:12:13.980Z,9.60
2018-11-28T16:17:19.187Z,9.47
2018-11-28T16:22:24.696Z,8.47
2018-11-28T16:27:29.361Z,11.97
2018-11-28T16:32:35.190Z,10.00
2018-11-28T16:37:40.603Z,9.87
2018-11-28T16:42:45.739Z,11.77
2018-11-28T16:47:50.492Z,11.63
2018-11-28T16:52:55.150Z,8.70
2018-11-28T16:58:00.915Z,11.07
2018-11-28T17:03:06.688Z,10.70
2018-11-28T17:08:11.418Z,9.40
2018-11-28T17:13:18.705Z,11.73
2018-11-28T17:18:23.475Z,15.30
2018-11-28T17:23:28.945Z,9.47
2018-11-28T17:28:33.760Z,9.60
2018-11-28T17:33:38.976Z,13.37
2018-11-28T17:38:44.594Z,14.00
2018-11-28T17:43:49.232Z,11.73
2018-11-28T17:48:54.393Z,17.43
2018-11-28T17:53:59.743Z,14.20
2018-11-28T17:59:04.487Z,10.33
2018-11-28T18:04:09.259Z,15.13
2018-11-28T18:09:14.965Z,10.90
2018-11-28T18:14:22.546Z,18.57
2018-11-28T18:19:27.629Z,16.00
2018-11-28T18:24:32.420Z,11.70
2018-11-28T18:29:37.273Z,15.17
2018-11-28T18:34:41.949Z,11.17
2018-11-28T18:39:47.227Z,12.57
2018-11-28T18:44:58.297Z,12.27
2018-11-28T18:50:03.322Z,11.70
2018-11-28T18:55:16.388Z,21.37
2018-11-28T19:00:17.698Z,14.97
2018-11-28T19:05:22.610Z,15.77
2018-11-28T19:10:27.519Z,11.87
2018-11-28T19:15:32.528Z,14.07
2018-11-28T19:20:37.713Z,13.53
2018-11-28T19:25:49.727Z,16.03
2018-11-28T19:30:49.027Z,13.03
2018-11-28T19:35:53.842Z,14.07
2018-11-28T19:41:00.882Z,12.63
2018-11-28T19:46:06.141Z,13.13
2018-11-28T19:51:11.774Z,10.33
2018-11-28T19:56:17.977Z,15.37
2018-11-28T20:01:22.856Z,16.77
2018-11-28T20:06:28.419Z,12.30
2018-11-28T20:11:33.512Z,15.80
2018-11-28T20:16:48.658Z,21.33
2018-11-28T20:21:53.508Z,13.30
2018-11-28T20:26:58.098Z,15.50
2018-11-28T20:32:03.701Z,14.23
2018-11-28T20:37:08.336Z,17.73
2018-11-28T20:42:12.909Z,19.90
2018-11-28T20:47:17.617Z,17.43
2018-11-28T20:52:22.239Z,14.50
2018-11-28T20:57:27.423Z,13.73
2018-11-28T21:02:32.575Z,16.07
2018-11-28T21:07:37.334Z,16.40
2018-11-28T21:12:42.713Z,12.70
2018-11-28T21:17:47.708Z,13.90
2018-11-28T21:22:54.359Z,14.20
2018-11-28T21:27:59.245Z,14.27
2018-11-28T21:33:04.461Z,12.97
2018-11-28T21:38:09.756Z,14.13
2018-11-28T21:43:14.526Z,11.73
2018-11-28T21:48:19.142Z,14.00
2018-11-28T21:53:24.021Z,14.13
2018-11-28T21:58:33.051Z,16.13
2018-11-28T22:03:38.168Z,12.07
2018-11-28T22:08:49.492Z,13.03
2018-11-28T22:13:54.156Z,12.40
2018-11-28T22:18:58.940Z,19.07
2018-11-28T22:24:06.465Z,13.67
2018-11-28T22:29:11.169Z,13.70
2018-11-28T22:34:16.413Z,12.90
2018-11-28T22:39:21.353Z,12.50
2018-11-28T22:44:26.315Z,13.10
2018-11-28T22:49:31.329Z,13.50
2018-11-28T22:54:36.344Z,12.90
2018-11-28T22:59:41.148Z,11.60
2018-11-28T23:04:45.986Z,13.77
2018-11-28T23:09:50.585Z,13.73
2018-11-28T23:14:55.553Z,10.20
2018-11-28T23:20:01.336Z,12.37
2018-11-28T23:25:10.127Z,19.33
2018-11-28T23:30:15.991Z,11.60
2018-11-28T23:35:22.156Z,13.03
2018-11-28T23:40:27.819Z,14.57
2018-11-28T23:45:32.860Z,14.00
2018-11-28T23:50:38.440Z,10.97
2018-11-28T23:55:45.883Z,11.30
